Time;durP1;ratioP1;P1;durP2;ratioP2;P2;SDS_P1;SDS_P2;PMS_P1;PMS_P2;Temp;Humidity;BMP_temperature;BMP_pressure;BME280_temperature;BME280_humidity;BME280_pressure;Samples;Min_cycle;Max_cycle;Signal;HPM_P1;HPM_P2
2021/06/09 00:01:32;;;;;;;68.40;55.03;;;16.30;99.90;;;;;;5072077;28;20534;-67
2021/06/09 00:03:58;;;;;;;63.40;50.73;;;16.20;99.90;;;;;;5072067;28;20531;-67
2021/06/09 00:06:25;;;;;;;69.33;53.67;;;16.30;99.90;;;;;;5072229;28;20481;-67
2021/06/09 00:08:52;;;;;;;68.20;52.37;;;16.20;99.90;;;;;;5071631;28;21000;-67
2021/06/09 00:11:21;;;;;;;64.47;50.07;;;16.20;99.90;;;;;;5071661;28;20826;-67
2021/06/09 00:13:48;;;;;;;64.13;51.20;;;16.20;99.90;;;;;;5071653;28;20487;-68
2021/06/09 00:16:16;;;;;;;68.70;51.33;;;16.10;99.90;;;;;;5071570;28;20445;-67
2021/06/09 00:18:43;;;;;;;64.50;50.57;;;16.10;99.90;;;;;;5071553;28;20467;-67
2021/06/09 00:21:09;;;;;;;73.90;52.77;;;16.10;99.90;;;;;;5071220;28;20533;-68
2021/06/09 00:23:36;;;;;;;68.47;53.00;;;16.20;99.90;;;;;;5071759;28;20443;-67
2021/06/09 00:26:05;;;;;;;71.37;53.13;;;16.20;99.90;;;;;;5071423;28;20485;-67
2021/06/09 00:28:34;;;;;;;71.80;52.10;;;16.20;99.90;;;;;;5071270;28;20467;-67
2021/06/09 00:31:01;;;;;;;62.70;50.27;;;16.20;99.90;;;;;;5071184;28;20446;-67
2021/06/09 00:33:28;;;;;;;65.07;51.57;;;16.20;99.90;;;;;;5071278;28;20482;-67
2021/06/09 00:35:57;;;;;;;67.50;49.60;;;16.20;99.90;;;;;;5071648;28;20447;-67
2021/06/09 00:38:24;;;;;;;61.90;48.60;;;16.20;99.90;;;;;;5071485;28;20530;-67
2021/06/09 00:40:50;;;;;;;66.07;48.80;;;16.10;99.90;;;;;;5070831;28;20449;-67
2021/06/09 00:43:19;;;;;;;67.00;49.80;;;16.10;99.90;;;;;;5071156;28;20530;-67
2021/06/09 00:45:52;;;;;;;66.00;49.40;;;16.00;99.90;;;;;;5071249;28;20538;-67
2021/06/09 00:48:24;;;;;;;62.73;49.47;;;16.00;99.90;;;;;;5071145;28;20447;-67
2021/06/09 00:50:51;;;;;;;62.37;46.33;;;16.00;99.90;;;;;;5070229;28;20474;-67
2021/06/09 00:53:32;;;;;;;57.90;46.07;;;16.00;99.90;;;;;;5071044;28;20581;-68
2021/06/09 00:56:00;;;;;;;64.73;47.63;;;16.00;99.90;;;;;;5071604;28;20466;-67
2021/06/09 00:58:28;;;;;;;58.77;46.23;;;16.00;99.90;;;;;;5070943;28;20478;-67
2021/06/09 01:00:56;;;;;;;55.40;43.00;;;16.00;99.90;;;;;;5070667;28;20538;-67
2021/06/09 01:03:23;;;;;;;58.40;45.30;;;15.90;99.90;;;;;;5070791;28;20453;-68
2021/06/09 01:05:49;;;;;;;58.17;44.23;;;15.90;99.90;;;;;;5070853;28;20442;-67
2021/06/09 01:08:16;;;;;;;55.50;42.30;;;15.90;99.90;;;;;;5070300;28;20451;-67
2021/06/09 01:10:44;;;;;;;61.83;46.27;;;15.90;99.90;;;;;;5070511;28;20466;-67
2021/06/09 01:13:11;;;;;;;51.57;43.77;;;15.90;99.90;;;;;;5070401;28;20483;-67
2021/06/09 01:15:38;;;;;;;60.00;47.50;;;15.90;99.90;;;;;;5070842;28;20454;-67
2021/06/09 01:18:06;;;;;;;56.87;46.40;;;15.90;99.90;;;;;;5070521;28;20514;-68
2021/06/09 01:20:33;;;;;;;56.23;44.60;;;15.90;99.90;;;;;;5071278;28;20454;-67
2021/06/09 01:23:01;;;;;;;59.40;44.93;;;15.90;99.90;;;;;;5070966;28;20892;-67
2021/06/09 01:25:28;;;;;;;57.40;45.50;;;15.90;99.90;;;;;;5070813;28;20488;-67
2021/06/09 01:27:55;;;;;;;59.60;47.03;;;15.90;99.90;;;;;;5071062;28;21111;-67
2021/06/09 01:30:22;;;;;;;65.23;48.47;;;15.90;99.90;;;;;;5070330;28;20463;-67
2021/06/09 01:32:50;;;;;;;61.97;46.00;;;15.90;99.90;;;;;;5070600;28;20485;-67
2021/06/09 01:35:17;;;;;;;53.10;44.33;;;15.90;99.90;;;;;;5070369;28;20443;-67
2021/06/09 01:37:43;;;;;;;56.27;45.40;;;15.90;99.90;;;;;;5070501;28;20447;-67
2021/06/09 01:40:14;;;;;;;50.27;42.17;;;15.90;99.90;;;;;;5069785;28;20467;-67
2021/06/09 01:42:41;;;;;;;58.20;44.47;;;15.90;99.90;;;;;;5070152;28;20439;-67
2021/06/09 01:45:11;;;;;;;50.10;43.47;;;15.90;99.90;;;;;;5069894;28;20443;-67
2021/06/09 01:47:37;;;;;;;56.40;43.93;;;15.90;99.90;;;;;;5070145;28;20538;-67
2021/06/09 01:50:05;;;;;;;50.07;44.30;;;15.90;99.90;;;;;;5069715;28;20547;-67
2021/06/09 01:52:31;;;;;;;50.83;41.63;;;15.90;99.90;;;;;;5069700;28;20971;-67
2021/06/09 01:54:57;;;;;;;49.10;40.50;;;15.90;99.90;;;;;;5070096;28;20530;-67
2021/06/09 01:57:25;;;;;;;53.80;41.10;;;15.90;99.90;;;;;;5069808;28;20967;-67
2021/06/09 01:59:52;;;;;;;51.43;42.20;;;15.90;99.90;;;;;;5069552;28;20873;-67
2021/06/09 02:02:18;;;;;;;54.57;42.37;;;15.80;99.90;;;;;;5069441;28;20439;-67
2021/06/09 02:04:44;;;;;;;56.90;43.90;;;15.80;99.90;;;;;;5069976;28;20447;-67
2021/06/09 02:07:11;;;;;;;53.67;45.20;;;15.80;99.90;;;;;;5069813;28;20914;-67
2021/06/09 02:09:38;;;;;;;58.90;48.40;;;15.80;99.90;;;;;;5069435;28;20965;-67
2021/06/09 02:12:06;;;;;;;63.47;48.63;;;15.90;99.90;;;;;;5069696;28;20815;-67
2021/06/09 02:14:35;;;;;;;54.97;43.83;;;15.90;99.90;;;;;;5069650;28;20590;-67
2021/06/09 02:17:03;;;;;;;62.87;48.37;;;15.90;99.90;;;;;;5069431;28;20538;-67
2021/06/09 02:19:31;;;;;;;54.67;44.40;;;15.80;99.90;;;;;;5069549;28;20988;-67
2021/06/09 02:21:58;;;;;;;52.87;43.63;;;15.80;99.90;;;;;;5069645;28;20450;-67
2021/06/09 02:24:26;;;;;;;56.60;44.57;;;15.80;99.90;;;;;;5069732;28;20894;-67
2021/06/09 02:26:53;;;;;;;55.63;45.60;;;15.70;99.90;;;;;;5069638;28;20538;-67
2021/06/09 02:29:20;;;;;;;63.10;48.17;;;15.80;99.90;;;;;;5068914;28;20473;-67
2021/06/09 02:31:50;;;;;;;60.00;46.70;;;15.70;99.90;;;;;;5069653;28;20525;-67
2021/06/09 02:34:18;;;;;;;64.80;50.10;;;15.80;99.90;;;;;;5069526;28;20574;-67
2021/06/09 02:36:48;;;;;;;56.53;44.93;;;15.80;99.90;;;;;;5069786;28;20508;-67
2021/06/09 02:39:14;;;;;;;56.83;45.97;;;15.80;99.90;;;;;;5069055;28;20459;-67
2021/06/09 02:41:40;;;;;;;62.83;47.97;;;15.80;99.90;;;;;;5069720;28;20964;-67
2021/06/09 02:44:07;;;;;;;63.30;47.27;;;15.80;99.90;;;;;;5069477;28;20446;-67
2021/06/09 02:46:37;;;;;;;65.30;48.47;;;15.70;99.90;;;;;;5070051;28;20461;-67
2021/06/09 02:49:09;;;;;;;63.57;47.97;;;15.60;99.90;;;;;;5069004;28;20560;-67
2021/06/09 02:51:41;;;;;;;61.03;46.00;;;15.60;99.90;;;;;;5069478;28;20534;-67
2021/06/09 02:54:18;;;;;;;62.03;46.07;;;15.60;99.90;;;;;;5069166;28;20535;-67
2021/06/09 02:56:53;;;;;;;61.87;46.30;;;15.60;99.90;;;;;;5069374;28;20483;-67
2021/06/09 02:59:43;;;;;;;65.50;47.67;;;15.60;99.90;;;;;;5069158;28;20558;-67
2021/06/09 03:02:17;;;;;;;63.30;47.40;;;15.50;99.90;;;;;;5069506;28;20449;-67
2021/06/09 03:04:50;;;;;;;61.67;45.63;;;15.50;99.90;;;;;;5069133;28;20439;-67
2021/06/09 03:07:23;;;;;;;57.97;44.93;;;15.50;99.90;;;;;;5069315;28;20500;-67
2021/06/09 03:10:02;;;;;;;58.20;44.67;;;15.50;99.90;;;;;;5068668;28;20463;-67
2021/06/09 03:12:37;;;;;;;53.30;43.33;;;15.50;99.90;;;;;;5069857;28;20455;-67
2021/06/09 03:15:12;;;;;;;48.90;41.10;;;15.50;99.90;;;;;;5072930;28;20492;-67
2021/06/09 03:17:52;;;;;;;54.07;41.53;;;15.50;99.90;;;;;;5073301;28;20458;-67
2021/06/09 03:20:27;;;;;;;50.23;42.10;;;15.50;99.90;;;;;;5072817;28;20470;-67
2021/06/09 03:23:03;;;;;;;48.40;41.20;;;15.60;99.90;;;;;;5072947;28;20438;-67
2021/06/09 03:25:34;;;;;;;49.93;40.73;;;15.60;99.90;;;;;;5073082;28;20464;-67
2021/06/09 03:28:11;;;;;;;51.40;40.50;;;15.50;99.90;;;;;;5072913;28;20443;-67
2021/06/09 03:30:39;;;;;;;54.80;42.77;;;15.50;99.90;;;;;;5072320;28;20450;-68
2021/06/09 03:33:08;;;;;;;59.70;46.07;;;15.50;99.90;;;;;;5072361;28;20471;-68
2021/06/09 03:35:39;;;;;;;60.70;46.57;;;15.50;99.90;;;;;;5072501;28;20542;-68
2021/06/09 03:38:10;;;;;;;63.70;47.13;;;15.40;99.90;;;;;;5072514;28;20536;-67
2021/06/09 03:40:40;;;;;;;55.93;45.00;;;15.50;99.90;;;;;;5072366;28;20542;-67
2021/06/09 03:43:10;;;;;;;65.17;45.70;;;15.50;99.90;;;;;;5072761;28;20504;-67
2021/06/09 03:45:43;;;;;;;61.10;45.73;;;15.50;99.90;;;;;;5072563;28;21094;-67
2021/06/09 03:48:12;;;;;;;62.57;43.27;;;15.60;99.90;;;;;;5072317;28;20453;-67
2021/06/09 03:50:42;;;;;;;54.20;43.80;;;15.60;99.90;;;;;;5072088;28;20967;-67
2021/06/09 03:53:09;;;;;;;65.57;46.63;;;15.60;99.90;;;;;;5072005;28;20487;-67
2021/06/09 03:55:37;;;;;;;62.97;45.87;;;15.60;99.90;;;;;;5072325;28;20819;-67
2021/06/09 03:58:08;;;;;;;58.63;44.77;;;15.70;99.90;;;;;;5072122;28;20442;-67
2021/06/09 04:00:36;;;;;;;59.80;46.00;;;15.70;99.90;;;;;;5071608;28;20439;-67
2021/06/09 04:03:03;;;;;;;62.93;47.57;;;15.80;99.90;;;;;;5071907;28;20962;-67
2021/06/09 04:05:31;;;;;;;56.03;45.13;;;15.80;99.90;;;;;;5072188;28;20814;-67
2021/06/09 04:08:00;;;;;;;56.47;42.30;;;15.80;99.90;;;;;;5072072;28;20443;-67
2021/06/09 04:10:27;;;;;;;53.50;43.73;;;15.90;99.90;;;;;;5071345;28;20463;-67
2021/06/09 04:12:54;;;;;;;52.97;42.67;;;15.90;99.90;;;;;;5071711;28;20475;-67
2021/06/09 04:15:23;;;;;;;46.43;38.17;;;15.90;99.90;;;;;;5071481;28;20447;-67
2021/06/09 04:17:51;;;;;;;48.20;39.37;;;15.90;99.90;;;;;;5071402;28;20439;-67
2021/06/09 04:20:23;;;;;;;52.40;40.93;;;15.90;99.90;;;;;;5070881;28;20879;-67
2021/06/09 04:22:50;;;;;;;53.97;43.73;;;15.80;99.90;;;;;;5071551;28;20815;-67
2021/06/09 04:25:19;;;;;;;60.90;48.77;;;15.90;99.90;;;;;;5070114;28;20530;-67
2021/06/09 04:27:47;;;;;;;58.53;47.70;;;16.00;99.90;;;;;;5071540;28;20447;-67
2021/06/09 04:30:15;;;;;;;59.07;48.03;;;16.00;99.90;;;;;;5070720;28;20896;-67
2021/06/09 04:32:49;;;;;;;67.37;49.67;;;16.10;99.90;;;;;;5071548;28;20534;-67
2021/06/09 04:35:16;;;;;;;63.93;48.53;;;16.10;99.90;;;;;;5071480;28;20545;-67
2021/06/09 04:37:42;;;;;;;57.20;45.93;;;16.20;99.90;;;;;;5071158;28;20447;-67
2021/06/09 04:40:15;;;;;;;53.73;45.03;;;16.30;99.90;;;;;;5070831;28;20465;-67
2021/06/09 04:42:44;;;;;;;53.03;44.47;;;16.40;99.90;;;;;;5070854;28;20451;-67
2021/06/09 04:45:11;;;;;;;50.47;42.80;;;16.50;99.90;;;;;;5071293;28;20466;-67
2021/06/09 04:47:38;;;;;;;49.43;43.80;;;16.40;99.90;;;;;;5071052;28;20436;-67
2021/06/09 04:50:05;;;;;;;51.10;44.43;;;16.60;99.90;;;;;;5070663;28;20463;-66
2021/06/09 04:52:32;;;;;;;46.40;39.50;;;16.60;99.90;;;;;;5070486;28;20463;-67
2021/06/09 04:54:58;;;;;;;45.83;39.30;;;16.70;99.90;;;;;;5070584;28;20475;-67
2021/06/09 04:57:25;;;;;;;43.90;39.13;;;16.80;99.90;;;;;;5070483;28;20446;-67
2021/06/09 04:59:52;;;;;;;46.30;40.37;;;16.90;99.90;;;;;;5070437;28;20452;-67
2021/06/09 05:02:20;;;;;;;45.00;40.10;;;17.00;99.90;;;;;;5070624;28;20449;-68
2021/06/09 05:04:46;;;;;;;47.33;42.27;;;17.00;99.90;;;;;;5080999;28;20473;-67
2021/06/09 05:07:13;;;;;;;42.27;37.27;;;17.10;99.90;;;;;;5088979;28;20499;-66
2021/06/09 05:09:39;;;;;;;44.27;38.67;;;17.10;99.90;;;;;;5087610;28;20493;-67
2021/06/09 05:12:13;;;;;;;42.37;37.77;;;17.20;99.90;;;;;;5088451;28;21063;-67
2021/06/09 05:14:46;;;;;;;41.00;36.70;;;17.20;99.90;;;;;;5085840;28;21066;-67
2021/06/09 05:17:17;;;;;;;40.67;36.40;;;17.30;99.90;;;;;;5089201;28;20537;-66
2021/06/09 05:19:46;;;;;;;40.43;36.13;;;17.30;99.90;;;;;;5078987;28;20470;-66
2021/06/09 05:22:18;;;;;;;39.23;35.03;;;17.30;99.90;;;;;;5057037;28;20921;-66
2021/06/09 05:24:47;;;;;;;36.27;32.60;;;17.40;99.90;;;;;;5065760;28;20439;-67
2021/06/09 05:27:22;;;;;;;37.33;33.53;;;17.50;99.90;;;;;;5067699;28;20439;-67
2021/06/09 05:29:50;;;;;;;37.20;33.20;;;17.60;99.90;;;;;;5066711;28;20600;-67
2021/06/09 05:32:19;;;;;;;36.87;33.03;;;17.60;99.90;;;;;;5066991;28;20483;-67
2021/06/09 05:34:47;;;;;;;36.53;32.87;;;17.70;99.90;;;;;;5066438;28;20485;-67
2021/06/09 05:37:15;;;;;;;37.23;33.33;;;17.70;99.90;;;;;;5065486;28;20443;-66
2021/06/09 05:39:42;;;;;;;38.77;34.70;;;17.70;99.90;;;;;;5065866;28;20554;-65
2021/06/09 05:42:10;;;;;;;38.17;34.17;;;17.80;99.90;;;;;;5066169;28;20453;-66
2021/06/09 05:44:36;;;;;;;40.37;35.87;;;17.90;99.90;;;;;;5064745;28;20990;-65
2021/06/09 05:47:04;;;;;;;36.13;32.53;;;18.00;99.90;;;;;;5064775;28;20993;-66
2021/06/09 05:49:33;;;;;;;38.40;32.60;;;18.20;99.90;;;;;;5064993;28;20463;-66
2021/06/09 05:52:00;;;;;;;35.90;31.97;;;18.30;99.90;;;;;;5065860;28;20535;-66
2021/06/09 05:54:33;;;;;;;35.27;31.70;;;18.50;99.90;;;;;;5065312;28;20510;-65
2021/06/09 05:57:01;;;;;;;34.83;31.30;;;18.50;99.90;;;;;;5065606;28;20439;-65
2021/06/09 05:59:27;;;;;;;34.00;30.60;;;18.50;99.90;;;;;;5065454;28;20467;-65
2021/06/09 06:01:54;;;;;;;35.70;32.00;;;18.70;99.90;;;;;;5065389;28;21109;-64
2021/06/09 06:04:21;;;;;;;36.90;33.13;;;18.70;99.90;;;;;;5066212;28;20445;-64
2021/06/09 06:06:49;;;;;;;34.87;31.17;;;18.70;99.90;;;;;;5065820;28;20472;-65
2021/06/09 06:09:16;;;;;;;33.70;30.27;;;18.80;99.90;;;;;;5065464;28;20467;-65
2021/06/09 06:11:43;;;;;;;32.73;29.53;;;18.90;99.90;;;;;;5066212;28;20435;-65
2021/06/09 06:14:11;;;;;;;34.60;31.30;;;19.00;99.90;;;;;;5065477;28;20544;-65
2021/06/09 06:16:38;;;;;;;33.20;29.90;;;19.20;99.90;;;;;;5065645;28;20458;-65
2021/06/09 06:19:05;;;;;;;34.40;31.10;;;19.40;99.90;;;;;;5065165;28;20467;-65
2021/06/09 06:21:32;;;;;;;34.80;31.50;;;19.50;99.90;;;;;;5065276;28;20924;-65
2021/06/09 06:24:00;;;;;;;32.93;29.73;;;19.50;99.90;;;;;;5065716;28;20596;-65
2021/06/09 06:26:26;;;;;;;32.43;29.33;;;19.60;99.90;;;;;;5065820;28;20933;-66
2021/06/09 06:28:53;;;;;;;34.37;30.67;;;19.80;99.90;;;;;;5065589;28;20461;-65
2021/06/09 06:31:23;;;;;;;33.23;29.87;;;20.00;99.90;;;;;;5065312;28;20451;-65
2021/06/09 06:33:52;;;;;;;30.17;27.43;;;20.20;99.90;;;;;;5065049;28;20485;-66
2021/06/09 06:36:21;;;;;;;29.97;27.30;;;20.40;99.90;;;;;;5065636;28;20500;-65
2021/06/09 06:38:48;;;;;;;32.33;29.43;;;20.70;99.90;;;;;;5065236;28;20556;-66
2021/06/09 06:41:17;;;;;;;31.43;28.53;;;20.80;99.90;;;;;;5064722;28;20478;-65
2021/06/09 06:43:44;;;;;;;29.80;27.10;;;21.00;99.90;;;;;;5065854;28;20984;-66
2021/06/09 06:46:13;;;;;;;30.87;27.77;;;21.00;99.90;;;;;;5065004;28;20455;-66
2021/06/09 06:48:40;;;;;;;31.43;28.63;;;21.00;99.90;;;;;;5068005;28;20676;-65
2021/06/09 06:51:08;;;;;;;32.50;29.40;;;21.00;99.90;;;;;;5068433;28;20549;-66
2021/06/09 06:53:35;;;;;;;32.43;29.53;;;21.10;99.90;;;;;;5068968;28;20480;-66
2021/06/09 06:56:02;;;;;;;30.00;27.20;;;21.20;99.90;;;;;;5069191;28;20457;-65
2021/06/09 06:58:32;;;;;;;30.90;28.00;;;21.20;99.90;;;;;;5068506;28;20473;-65
2021/06/09 07:00:59;;;;;;;31.00;28.27;;;21.20;99.90;;;;;;5068548;28;20447;-66
2021/06/09 07:03:27;;;;;;;31.27;28.43;;;21.30;99.90;;;;;;5068410;28;20435;-65
2021/06/09 07:05:55;;;;;;;32.83;29.83;;;21.40;99.90;;;;;;5068830;28;21043;-65
2021/06/09 07:08:22;;;;;;;31.53;28.70;;;21.30;99.90;;;;;;5068932;28;20543;-65
2021/06/09 07:10:49;;;;;;;34.00;31.10;;;21.40;99.90;;;;;;5068276;28;20951;-65
2021/06/09 07:13:15;;;;;;;33.40;30.30;;;21.60;99.90;;;;;;5068732;28;20478;-66
2021/06/09 07:15:45;;;;;;;34.43;31.43;;;21.80;99.90;;;;;;5068932;28;20612;-65
2021/06/09 07:18:12;;;;;;;34.20;30.87;;;21.90;99.90;;;;;;5069098;28;20461;-65
2021/06/09 07:20:40;;;;;;;30.77;28.07;;;22.00;99.90;;;;;;5068499;28;20442;-66
2021/06/09 07:23:06;;;;;;;32.50;29.50;;;22.20;99.90;;;;;;5068541;28;20529;-65
2021/06/09 07:25:33;;;;;;;32.43;29.30;;;22.20;99.90;;;;;;5068830;28;20592;-65
2021/06/09 07:28:03;;;;;;;34.93;31.80;;;22.50;99.90;;;;;;5068370;28;20462;-65
2021/06/09 07:30:34;;;;;;;32.20;29.37;;;22.50;99.90;;;;;;5068485;28;20467;-65
2021/06/09 07:33:03;;;;;;;32.40;29.70;;;22.70;99.90;;;;;;5068250;28;20508;-65
2021/06/09 07:35:29;;;;;;;33.63;30.63;;;23.00;99.90;;;;;;5068162;28;21034;-65
2021/06/09 07:38:04;;;;;;;33.07;30.27;;;22.90;99.90;;;;;;5068300;28;20443;-65
2021/06/09 07:40:33;;;;;;;33.13;30.00;;;22.60;99.90;;;;;;5068240;28;20474;-66
2021/06/09 07:43:04;;;;;;;32.00;29.00;;;22.50;99.90;;;;;;5068634;28;20458;-65
2021/06/09 07:45:32;;;;;;;33.37;30.37;;;22.20;99.90;;;;;;5068530;28;20443;-65
2021/06/09 07:48:00;;;;;;;33.93;31.03;;;22.10;99.90;;;;;;5068540;28;20443;-66
2021/06/09 07:50:31;;;;;;;34.37;31.13;;;22.10;99.90;;;;;;5068094;28;20478;-66
2021/06/09 07:53:05;;;;;;;34.50;31.60;;;22.10;99.90;;;;;;5067814;28;20469;-65
2021/06/09 07:55:32;;;;;;;31.90;28.80;;;22.10;99.90;;;;;;5068216;28;20459;-65
2021/06/09 07:57:59;;;;;;;32.13;29.20;;;22.00;99.90;;;;;;5068050;28;20469;-66
2021/06/09 08:00:26;;;;;;;32.97;30.07;;;22.10;99.90;;;;;;5067510;28;20463;-65
2021/06/09 08:02:56;;;;;;;35.78;32.88;;;22.20;99.90;;;;;;5067049;28;20438;-66
2021/06/09 08:05:24;;;;;;;32.73;29.87;;;22.20;99.90;;;;;;5067438;28;20258;-66
2021/06/09 08:07:53;;;;;;;31.30;28.30;;;22.30;99.90;;;;;;5068291;28;20453;-66
2021/06/09 08:10:21;;;;;;;32.83;29.67;;;22.60;99.90;;;;;;5068054;28;20550;-66
2021/06/09 08:12:50;;;;;;;33.00;30.30;;;23.00;99.90;;;;;;5068268;28;20447;-66
2021/06/09 08:15:16;;;;;;;31.63;29.03;;;23.10;99.90;;;;;;5067866;28;20561;-67
2021/06/09 08:17:45;;;;;;;31.57;28.87;;;23.30;99.90;;;;;;5067964;28;20449;-67
2021/06/09 08:20:14;;;;;;;28.90;26.50;;;23.40;99.90;;;;;;5068344;28;20474;-66
2021/06/09 08:22:44;;;;;;;31.93;28.93;;;23.60;99.90;;;;;;5068155;28;20514;-67
2021/06/09 08:25:14;;;;;;;33.53;30.27;;;23.70;99.90;;;;;;5069807;28;20442;-67
2021/06/09 08:27:41;;;;;;;32.37;29.63;;;23.90;99.90;;;;;;5069437;28;20471;-66
2021/06/09 08:30:09;;;;;;;33.10;29.90;;;23.80;99.90;;;;;;5068148;28;20554;-67
2021/06/09 08:32:35;;;;;;;30.30;27.60;;;23.90;99.90;;;;;;5069913;28;20512;-67
2021/06/09 08:35:02;;;;;;;31.10;28.40;;;23.90;99.90;;;;;;5069011;28;21023;-66
2021/06/09 08:37:28;;;;;;;31.00;28.50;;;23.80;99.90;;;;;;5069661;28;20538;-64
2021/06/09 08:39:55;;;;;;;33.30;30.57;;;23.80;99.90;;;;;;5069153;28;20463;-65
2021/06/09 08:42:26;;;;;;;34.63;31.77;;;23.50;99.90;;;;;;5065362;28;20956;-66
2021/06/09 08:44:52;;;;;;;33.80;30.90;;;23.30;99.90;;;;;;5065200;28;20864;-65
2021/06/09 08:47:19;;;;;;;30.63;27.73;;;23.20;99.90;;;;;;5065315;28;20447;-64
2021/06/09 08:49:46;;;;;;;32.40;29.30;;;23.20;99.90;;;;;;5061145;28;21155;-65
2021/06/09 08:52:14;;;;;;;31.50;28.87;;;23.30;99.90;;;;;;5063051;28;20512;-65
2021/06/09 08:54:44;;;;;;;32.17;29.33;;;23.60;99.90;;;;;;5068193;28;20481;-67
2021/06/09 08:57:13;;;;;;;30.40;27.83;;;23.60;99.90;;;;;;5069187;28;20600;-67
2021/06/09 08:59:43;;;;;;;29.83;27.33;;;23.60;99.90;;;;;;5068625;28;20474;-65
2021/06/09 09:02:10;;;;;;;33.63;30.63;;;23.60;99.90;;;;;;5069136;28;20929;-64
2021/06/09 09:04:37;;;;;;;31.63;28.83;;;23.60;99.90;;;;;;5068498;28;20439;-65
2021/06/09 09:07:04;;;;;;;31.97;29.27;;;23.30;99.90;;;;;;5068908;28;20904;-66
2021/06/09 09:09:31;;;;;;;33.73;30.53;;;23.00;99.90;;;;;;5068406;28;20469;-66
2021/06/09 09:11:57;;;;;;;31.73;28.93;;;22.80;99.90;;;;;;5065212;28;20545;-66
2021/06/09 09:14:24;;;;;;;35.20;31.90;;;23.00;99.90;;;;;;5067905;28;20564;-66
2021/06/09 09:17:09;;;;;;;34.07;31.13;;;23.20;99.90;;;;;;5068084;28;20443;-65
2021/06/09 09:19:40;;;;;;;34.93;31.63;;;23.20;99.90;;;;;;5068442;28;20534;-65
2021/06/09 09:22:07;;;;;;;33.67;30.57;;;23.00;99.90;;;;;;5068162;28;20458;-65
2021/06/09 09:24:40;;;;;;;28.93;26.40;;;23.30;99.90;;;;;;5067773;28;20454;-66
2021/06/09 09:27:07;;;;;;;35.47;32.10;;;23.50;99.90;;;;;;5068082;28;20558;-66
2021/06/09 09:29:34;;;;;;;32.03;29.20;;;23.60;99.90;;;;;;5067658;28;20463;-66
2021/06/09 09:32:05;;;;;;;32.30;29.60;;;23.60;99.90;;;;;;5068194;28;20457;-64
2021/06/09 09:34:43;;;;;;;33.17;30.20;;;23.50;99.90;;;;;;5067785;28;20479;-65
2021/06/09 09:37:16;;;;;;;31.60;28.77;;;23.60;99.90;;;;;;5067794;28;20522;-65
2021/06/09 09:39:46;;;;;;;31.10;28.50;;;23.80;99.90;;;;;;5067537;28;20473;-65
2021/06/09 09:42:34;;;;;;;29.10;26.70;;;24.20;99.90;;;;;;5067467;28;20493;-65
2021/06/09 09:45:22;;;;;;;32.90;30.20;;;24.70;99.90;;;;;;5067513;28;20443;-65
2021/06/09 09:48:14;;;;;;;32.73;29.83;;;24.70;99.90;;;;;;5067312;28;20452;-65
2021/06/09 09:50:44;;;;;;;30.50;27.80;;;24.70;99.90;;;;;;5067758;28;20480;-64
2021/06/09 09:53:19;;;;;;;29.30;26.90;;;25.00;99.90;;;;;;5067555;28;20530;-64
2021/06/09 09:56:00;;;;;;;29.60;27.03;;;25.30;99.90;;;;;;5067623;28;20550;-65
2021/06/09 09:58:28;;;;;;;24.97;22.77;;;25.90;99.90;;;;;;5067735;28;20438;-65
2021/06/09 10:01:25;;;;;;;27.37;25.07;;;26.70;99.90;;;;;;5067405;28;20439;-64
2021/06/09 10:03:53;;;;;;;25.87;23.67;;;27.70;99.90;;;;;;5067548;28;21051;-65
2021/06/09 10:06:30;;;;;;;24.03;22.10;;;28.30;99.90;;;;;;5067097;28;20848;-65
2021/06/09 10:08:58;;;;;;;25.30;23.23;;;28.70;99.90;;;;;;5067605;28;20463;-64
2021/06/09 10:11:26;;;;;;;23.90;21.90;;;29.20;99.90;;;;;;5067320;28;20956;-64
2021/06/09 10:13:53;;;;;;;23.20;21.40;;;29.80;99.90;;;;;;5069674;28;20526;-65
2021/06/09 10:16:26;;;;;;;22.67;20.97;;;29.60;99.90;;;;;;5087798;28;20453;-65
2021/06/09 10:19:07;;;;;;;21.37;19.67;;;29.50;99.90;;;;;;5087651;28;20480;-65
2021/06/09 10:21:47;;;;;;;21.10;19.13;;;29.60;99.90;;;;;;5088627;28;20446;-65
2021/06/09 10:24:13;;;;;;;20.10;18.60;;;29.90;99.90;;;;;;5091344;28;20487;-66
2021/06/09 10:26:44;;;;;;;23.20;21.50;;;30.00;99.90;;;;;;5091480;28;20510;-65
2021/06/09 10:29:14;;;;;;;19.30;17.90;;;29.40;99.90;;;;;;5091183;28;20470;-65
2021/06/09 10:31:43;;;;;;;20.83;19.17;;;29.60;99.90;;;;;;5091808;28;20896;-65
2021/06/09 10:34:09;;;;;;;20.97;19.13;;;29.90;99.90;;;;;;5091635;28;20472;-65
2021/06/09 10:36:41;;;;;;;21.00;19.30;;;30.30;99.90;;;;;;5091094;28;20953;-65
2021/06/09 10:39:08;;;;;;;17.90;16.60;;;30.10;99.90;;;;;;5091331;28;20907;-64
2021/06/09 10:41:38;;;;;;;18.87;17.40;;;30.20;99.90;;;;;;5090866;28;20942;-65
2021/06/09 10:44:05;;;;;;;16.77;15.57;;;30.50;99.90;;;;;;5091317;28;20953;-65
2021/06/09 10:46:33;;;;;;;16.53;15.33;;;30.80;99.50;;;;;;5091233;28;20450;-65
2021/06/09 10:49:01;;;;;;;19.53;18.13;;;31.00;98.90;;;;;;5090945;28;20949;-64
2021/06/09 10:51:29;;;;;;;17.10;15.70;;;31.00;95.90;;;;;;5091359;28;20548;-64
2021/06/09 10:54:00;;;;;;;16.77;15.57;;;30.80;98.70;;;;;;5090696;28;20473;-64
2021/06/09 10:56:26;;;;;;;16.37;15.27;;;30.70;97.90;;;;;;5091500;28;20450;-65
2021/06/09 10:58:53;;;;;;;16.80;15.40;;;30.90;98.30;;;;;;5091520;28;20457;-64
2021/06/09 11:01:23;;;;;;;16.83;15.57;;;31.30;97.00;;;;;;5090742;28;20645;-65
2021/06/09 11:03:51;;;;;;;16.83;15.20;;;31.60;95.70;;;;;;5091547;28;20449;-65
2021/06/09 11:06:17;;;;;;;15.93;14.73;;;31.60;95.30;;;;;;5091417;28;20450;-63
2021/06/09 11:08:43;;;;;;;15.73;14.53;;;32.00;96.30;;;;;;5090840;28;20469;-64
2021/06/09 11:11:19;;;;;;;16.53;15.13;;;32.50;97.30;;;;;;5091550;28;20438;-65
2021/06/09 11:13:47;;;;;;;17.40;16.10;;;32.70;95.70;;;;;;5091371;28;20493;-66
2021/06/09 11:16:17;;;;;;;15.20;13.90;;;32.30;92.60;;;;;;5090605;28;20453;-64
2021/06/09 11:18:45;;;;;;;16.70;15.40;;;31.80;94.50;;;;;;5091330;28;20478;-66
2021/06/09 11:21:15;;;;;;;16.80;15.30;;;31.70;94.00;;;;;;5092417;28;20442;-65
2021/06/09 11:23:42;;;;;;;15.70;14.50;;;31.60;94.20;;;;;;5092791;28;20482;-64
2021/06/09 11:26:25;;;;;;;14.60;13.53;;;31.90;94.00;;;;;;5093195;28;20487;-65
2021/06/09 11:28:52;;;;;;;14.97;13.87;;;32.00;94.80;;;;;;5084194;28;20481;-65
2021/06/09 11:31:23;;;;;;;15.77;14.47;;;32.30;93.30;;;;;;5070410;28;20472;-64
2021/06/09 11:33:59;;;;;;;14.10;12.87;;;32.20;91.70;;;;;;5071236;28;21019;-64
2021/06/09 11:36:41;;;;;;;14.00;12.80;;;31.40;91.90;;;;;;5069345;28;20551;-65
2021/06/09 11:39:22;;;;;;;13.00;11.90;;;30.20;92.20;;;;;;5061597;28;20557;-66
2021/06/09 11:41:52;;;;;;;14.77;13.67;;;29.10;93.70;;;;;;5070353;28;20994;-64
2021/06/09 11:44:31;;;;;;;15.07;13.87;;;29.10;96.60;;;;;;5071802;28;20518;-65
2021/06/09 11:47:17;;;;;;;15.97;14.57;;;28.60;96.10;;;;;;5064515;28;20447;-64
2021/06/09 11:49:45;;;;;;;16.20;14.90;;;27.60;98.00;;;;;;5070952;28;20478;-64
2021/06/09 11:52:11;;;;;;;18.47;16.80;;;26.70;99.40;;;;;;5071488;28;20462;-64
2021/06/09 11:54:38;;;;;;;17.07;15.47;;;26.20;99.90;;;;;;5071809;28;20485;-68
2021/06/09 11:57:13;;;;;;;18.10;16.60;;;26.10;99.90;;;;;;5065429;28;20952;-65
2021/06/09 11:59:41;;;;;;;17.30;15.90;;;26.10;99.90;;;;;;5067118;28;20514;-64
2021/06/09 12:02:15;;;;;;;17.63;16.03;;;26.10;99.90;;;;;;5074381;28;20875;-65
2021/06/09 12:04:43;;;;;;;19.23;17.63;;;26.20;99.90;;;;;;5072276;28;20445;-64
2021/06/09 12:07:10;;;;;;;17.90;16.20;;;26.40;99.90;;;;;;5079059;28;20549;-64
2021/06/09 12:09:41;;;;;;;17.83;16.40;;;26.00;99.90;;;;;;5071380;28;20459;-64
2021/06/09 12:12:13;;;;;;;17.50;16.10;;;25.70;99.90;;;;;;5071846;28;20508;-64
2021/06/09 12:14:44;;;;;;;20.10;18.40;;;25.60;99.90;;;;;;5071403;28;21115;-64
2021/06/09 12:17:19;;;;;;;19.57;17.87;;;25.60;99.90;;;;;;5071709;28;20447;-64
2021/06/09 12:19:48;;;;;;;20.43;18.33;;;25.50;99.90;;;;;;5071216;28;20474;-64
2021/06/09 12:22:16;;;;;;;18.87;17.27;;;25.70;99.90;;;;;;5071779;28;20471;-64
2021/06/09 12:24:42;;;;;;;17.03;15.67;;;26.40;99.90;;;;;;5071290;28;20538;-64
2021/06/09 12:27:12;;;;;;;18.60;16.97;;;27.60;99.90;;;;;;5071490;28;20498;-64
2021/06/09 12:29:41;;;;;;;17.90;16.60;;;28.80;99.90;;;;;;5070718;28;20974;-64
2021/06/09 12:32:20;;;;;;;17.80;16.10;;;29.70;99.90;;;;;;5071188;28;20940;-64
2021/06/09 12:34:57;;;;;;;16.87;15.57;;;30.20;98.50;;;;;;5071205;28;20479;-64
2021/06/09 12:37:23;;;;;;;16.20;14.80;;;30.50;96.80;;;;;;5070841;28;20528;-65
2021/06/09 12:39:55;;;;;;;17.73;16.23;;;31.10;97.60;;;;;;5070705;28;20563;-65